Time;durP1;ratioP1;P1;durP2;ratioP2;P2;SDS_P1;SDS_P2;PMS_P1;PMS_P2;Temp;Humidity;BMP_temperature;BMP_pressure;BME280_temperature;BME280_humidity;BME280_pressure;Samples;Min_cycle;Max_cycle;Signal;HPM_P1;HPM_P2
2022/08/01 00:02:13;;;;;;;4.50;2.53;;;20.90;99.90;;;;;;5072092;28;20027;-60
2022/08/01 00:04:39;;;;;;;8.23;3.10;;;20.80;99.90;;;;;;5072488;28;20485;-60
2022/08/01 00:07:05;;;;;;;9.13;3.45;;;20.60;99.90;;;;;;5071916;28;20021;-59
2022/08/01 00:09:30;;;;;;;5.55;3.38;;;20.50;99.90;;;;;;5070821;28;20468;-59
2022/08/01 00:11:56;;;;;;;6.40;3.10;;;20.60;99.90;;;;;;5071931;28;20032;-59
2022/08/01 00:14:22;;;;;;;6.30;3.67;;;20.60;99.90;;;;;;5071893;28;20032;-58
2022/08/01 00:16:47;;;;;;;7.85;3.40;;;20.50;99.90;;;;;;5071741;28;20032;-59
2022/08/01 00:19:13;;;;;;;7.25;3.50;;;20.50;99.90;;;;;;5072042;28;20043;-59
2022/08/01 00:21:38;;;;;;;6.95;3.58;;;20.50;99.90;;;;;;5071433;28;20115;-59
2022/08/01 00:24:04;;;;;;;6.78;3.45;;;20.50;99.90;;;;;;5071728;28;20386;-59
2022/08/01 00:26:30;;;;;;;6.13;3.50;;;20.40;99.90;;;;;;5071399;28;20036;-58
2022/08/01 00:28:55;;;;;;;8.88;3.60;;;20.40;99.90;;;;;;5070411;28;20204;-59
2022/08/01 00:31:21;;;;;;;6.43;3.60;;;20.30;99.90;;;;;;5071440;28;20036;-59
2022/08/01 00:33:47;;;;;;;6.82;3.65;;;20.30;99.90;;;;;;5071574;28;20043;-59
2022/08/01 00:36:13;;;;;;;7.45;3.90;;;20.30;99.90;;;;;;5070074;28;20035;-59
2022/08/01 00:38:38;;;;;;;6.32;4.28;;;20.30;99.90;;;;;;5071798;28;20597;-58
2022/08/01 00:41:04;;;;;;;7.65;4.20;;;20.40;99.90;;;;;;5071341;28;20024;-59
2022/08/01 00:43:30;;;;;;;8.45;4.22;;;20.20;99.90;;;;;;5070106;28;20027;-59
2022/08/01 00:45:55;;;;;;;9.48;4.30;;;20.20;99.90;;;;;;5071078;28;20033;-59
2022/08/01 00:48:21;;;;;;;10.38;4.68;;;20.30;99.90;;;;;;5071132;28;20052;-59
2022/08/01 00:50:47;;;;;;;9.23;4.70;;;20.20;99.90;;;;;;5071445;28;20036;-60
2022/08/01 00:53:12;;;;;;;11.38;5.60;;;20.00;99.90;;;;;;5071115;28;20024;-59
2022/08/01 00:55:38;;;;;;;12.35;5.47;;;20.10;99.90;;;;;;5071214;28;20427;-59
2022/08/01 00:58:04;;;;;;;10.90;5.60;;;20.20;99.90;;;;;;5069833;28;20074;-59
2022/08/01 01:00:31;;;;;;;13.30;5.70;;;20.20;99.90;;;;;;5071175;28;20029;-60
2022/08/01 01:02:57;;;;;;;11.20;5.82;;;20.20;99.90;;;;;;5071097;28;20409;-60
2022/08/01 01:05:23;;;;;;;18.48;7.40;;;20.30;99.90;;;;;;5071155;28;20120;-59
2022/08/01 01:07:51;;;;;;;16.73;7.68;;;20.10;99.90;;;;;;5071402;28;20115;-59
2022/08/01 01:10:28;;;;;;;15.88;7.63;;;20.00;99.90;;;;;;5071105;28;20047;-59
2022/08/01 01:13:24;;;;;;;16.63;8.15;;;20.00;99.90;;;;;;5071114;28;20087;-60
2022/08/01 01:15:58;;;;;;;17.00;7.70;;;20.00;99.90;;;;;;5071048;28;20396;-59
2022/08/01 01:18:27;;;;;;;14.50;8.00;;;19.90;99.90;;;;;;5071402;28;20032;-60
2022/08/01 01:21:16;;;;;;;17.23;8.10;;;19.90;99.90;;;;;;5070812;28;20120;-59
2022/08/01 01:24:09;;;;;;;18.35;8.27;;;19.90;99.90;;;;;;5070746;28;20035;-59
2022/08/01 01:27:06;;;;;;;15.95;7.78;;;19.90;99.90;;;;;;5069804;28;20508;-60
2022/08/01 01:29:38;;;;;;;20.15;9.32;;;20.00;99.90;;;;;;5070901;28;20028;-59
2022/08/01 01:32:14;;;;;;;20.02;8.23;;;19.90;99.90;;;;;;5070934;28;20058;-59
2022/08/01 01:34:43;;;;;;;14.35;8.25;;;19.90;99.90;;;;;;5070771;28;20037;-60
2022/08/01 01:37:15;;;;;;;16.70;8.82;;;19.90;99.90;;;;;;5070811;28;20025;-59
2022/08/01 01:39:42;;;;;;;16.98;9.10;;;19.80;99.90;;;;;;5071045;28;20158;-59
2022/08/01 01:42:09;;;;;;;18.75;9.15;;;19.80;99.90;;;;;;5070799;28;20481;-59
2022/08/01 01:44:36;;;;;;;19.73;8.63;;;19.80;99.90;;;;;;5071030;28;20493;-59
2022/08/01 01:47:04;;;;;;;17.80;8.45;;;19.90;99.90;;;;;;5070510;28;20036;-59
2022/08/01 01:49:31;;;;;;;13.75;8.13;;;19.80;99.90;;;;;;5070895;28;20109;-60
2022/08/01 01:51:58;;;;;;;15.63;7.95;;;19.80;99.90;;;;;;5070736;28;20032;-60
2022/08/01 01:54:34;;;;;;;15.02;7.60;;;19.90;99.90;;;;;;5070889;28;20500;-60
2022/08/01 01:57:03;;;;;;;17.58;8.23;;;19.90;99.90;;;;;;5070584;28;20489;-60
2022/08/01 01:59:32;;;;;;;11.50;7.68;;;19.90;99.90;;;;;;5070620;28;20556;-59
2022/08/01 02:02:02;;;;;;;12.90;8.10;;;19.90;99.90;;;;;;5074280;28;20012;-60
2022/08/01 02:04:29;;;;;;;13.65;8.32;;;19.90;99.90;;;;;;5074341;28;20035;-59
2022/08/01 02:06:57;;;;;;;12.43;8.48;;;19.90;99.90;;;;;;5074191;28;20025;-59
2022/08/01 02:09:25;;;;;;;13.65;8.23;;;20.00;99.90;;;;;;5074238;28;20039;-60
2022/08/01 02:11:53;;;;;;;14.15;9.27;;;20.10;99.90;;;;;;5074061;28;20392;-59
2022/08/01 02:14:19;;;;;;;13.93;9.13;;;20.10;99.90;;;;;;5073819;28;20094;-60
2022/08/01 02:16:48;;;;;;;18.73;11.57;;;20.10;99.90;;;;;;5074073;28;20434;-59
2022/08/01 02:19:16;;;;;;;19.92;11.02;;;20.10;99.90;;;;;;5074063;28;20034;-60
2022/08/01 02:22:15;;;;;;;20.42;11.95;;;20.10;99.90;;;;;;5072750;28;20032;-60
2022/08/01 02:24:54;;;;;;;19.67;13.25;;;20.10;99.90;;;;;;5071428;28;20033;-59
2022/08/01 02:27:34;;;;;;;20.58;14.13;;;20.10;99.90;;;;;;5073731;28;20046;-60
2022/08/01 02:30:06;;;;;;;24.60;15.18;;;19.90;99.90;;;;;;5074053;28;20040;-60
2022/08/01 02:32:44;;;;;;;25.75;15.82;;;19.90;99.90;;;;;;5073844;28;20044;-59
2022/08/01 02:35:14;;;;;;;24.77;15.07;;;19.90;99.90;;;;;;5073791;28;20036;-59
2022/08/01 02:37:42;;;;;;;25.30;15.15;;;19.90;99.90;;;;;;5074470;28;20535;-59
2022/08/01 02:40:09;;;;;;;26.80;15.45;;;19.90;99.90;;;;;;5072435;28;20041;-59
2022/08/01 02:42:37;;;;;;;29.63;16.27;;;19.90;99.90;;;;;;5073817;28;20056;-59
2022/08/01 02:45:05;;;;;;;30.55;17.42;;;20.00;99.90;;;;;;5073907;28;20035;-60
2022/08/01 02:47:32;;;;;;;29.95;17.65;;;20.10;99.90;;;;;;5073615;28;20028;-60
2022/08/01 02:50:00;;;;;;;27.88;18.17;;;20.10;99.90;;;;;;5073847;28;20028;-60
2022/08/01 02:52:27;;;;;;;29.02;18.17;;;20.20;99.90;;;;;;5073474;28;20528;-60
2022/08/01 02:54:56;;;;;;;29.70;18.25;;;20.10;99.90;;;;;;5073611;28;20064;-61
2022/08/01 02:57:22;;;;;;;30.70;18.85;;;20.00;99.90;;;;;;5071982;28;20115;-60
2022/08/01 02:59:50;;;;;;;30.30;18.95;;;20.00;99.90;;;;;;5073547;28;20579;-60
2022/08/01 03:02:17;;;;;;;32.70;19.33;;;20.00;99.90;;;;;;5073372;28;20017;-60
2022/08/01 03:04:45;;;;;;;32.42;20.02;;;19.90;99.90;;;;;;5073406;28;20045;-60
2022/08/01 03:07:12;;;;;;;36.63;20.63;;;19.90;99.90;;;;;;5073180;28;20021;-60
2022/08/01 03:09:41;;;;;;;39.03;20.80;;;19.80;99.90;;;;;;5073554;28;20453;-60
2022/08/01 03:12:13;;;;;;;38.40;21.92;;;19.80;99.90;;;;;;5072465;28;20028;-60
2022/08/01 03:14:42;;;;;;;35.25;22.17;;;20.00;99.90;;;;;;5073073;28;20436;-60
2022/08/01 03:17:09;;;;;;;34.20;22.08;;;20.00;99.90;;;;;;5073062;28;20067;-60
2022/08/01 03:19:38;;;;;;;34.20;21.85;;;20.00;99.90;;;;;;5073316;28;20082;-60
2022/08/01 03:22:07;;;;;;;36.33;21.67;;;20.00;99.90;;;;;;5072642;28;20074;-60
2022/08/01 03:24:34;;;;;;;34.33;21.27;;;19.90;99.90;;;;;;5073046;28;20039;-60
2022/08/01 03:27:02;;;;;;;26.02;20.20;;;20.00;99.90;;;;;;5071391;28;20136;-59
2022/08/01 03:29:29;;;;;;;31.30;21.27;;;19.80;99.90;;;;;;5072663;28;20548;-59
2022/08/01 03:31:57;;;;;;;21.58;17.00;;;19.70;99.90;;;;;;5072749;28;20393;-59
2022/08/01 03:34:23;;;;;;;18.02;14.73;;;19.70;99.90;;;;;;5072852;28;20626;-60
2022/08/01 03:36:59;;;;;;;21.45;14.70;;;19.70;99.90;;;;;;5072969;28;20100;-60
2022/08/01 03:39:31;;;;;;;21.10;14.32;;;19.70;99.90;;;;;;5054978;28;20033;-60
2022/08/01 03:42:04;;;;;;;23.27;14.50;;;19.70;99.90;;;;;;5072581;28;20107;-60
2022/08/01 03:44:34;;;;;;;19.42;14.23;;;19.70;99.90;;;;;;5072557;28;20037;-60
2022/08/01 03:47:05;;;;;;;26.15;13.85;;;19.80;99.90;;;;;;5072454;28;20155;-59
2022/08/01 03:49:33;;;;;;;20.10;13.30;;;19.70;99.90;;;;;;5072546;28;20040;-60
2022/08/01 03:52:02;;;;;;;22.88;13.82;;;19.90;99.90;;;;;;5072546;28;20120;-60
2022/08/01 03:54:33;;;;;;;22.20;14.27;;;19.90;99.90;;;;;;5072307;28;20477;-60
2022/08/01 03:57:00;;;;;;;18.55;13.23;;;20.00;99.90;;;;;;5072665;28;20040;-60
2022/08/01 03:59:26;;;;;;;26.50;15.85;;;20.00;99.90;;;;;;5072037;28;20520;-59
2022/08/01 04:01:53;;;;;;;18.08;12.73;;;20.00;99.90;;;;;;5072166;28;20021;-59
2022/08/01 04:04:19;;;;;;;24.42;13.50;;;19.90;99.90;;;;;;5071920;28;20035;-60
2022/08/01 04:06:45;;;;;;;20.15;12.20;;;19.80;99.90;;;;;;5071938;28;20024;-60
2022/08/01 04:09:14;;;;;;;19.75;12.40;;;19.80;99.90;;;;;;5072294;28;20025;-59
2022/08/01 04:11:41;;;;;;;23.17;13.27;;;19.90;99.90;;;;;;5072124;28;20024;-60
2022/08/01 04:14:07;;;;;;;20.50;13.35;;;19.90;99.90;;;;;;5071568;28;20025;-60
2022/08/01 04:16:32;;;;;;;21.42;12.73;;;20.00;99.90;;;;;;5070260;28;20031;-60
2022/08/01 04:18:58;;;;;;;21.80;12.68;;;20.00;99.90;;;;;;5071800;28;20027;-59
2022/08/01 04:21:30;;;;;;;20.02;12.52;;;20.00;99.90;;;;;;5071665;28;20033;-60
2022/08/01 04:24:04;;;;;;;19.58;12.63;;;20.00;99.90;;;;;;5069773;28;20024;-60
2022/08/01 04:26:32;;;;;;;21.42;12.63;;;20.20;99.90;;;;;;5070327;28;20489;-60
2022/08/01 04:29:00;;;;;;;21.25;12.57;;;20.20;99.90;;;;;;5070534;28;20017;-59
2022/08/01 04:31:27;;;;;;;19.92;12.82;;;20.10;99.90;;;;;;5071392;28;20477;-60
2022/08/01 04:33:55;;;;;;;21.02;12.25;;;20.20;99.90;;;;;;5070089;28;20016;-59
2022/08/01 04:36:23;;;;;;;19.73;12.82;;;20.20;99.90;;;;;;5071221;28;20032;-59
2022/08/01 04:38:54;;;;;;;16.90;11.77;;;20.30;99.90;;;;;;5071675;28;20024;-59
2022/08/01 04:41:22;;;;;;;15.88;11.73;;;20.20;99.90;;;;;;5069970;28;20039;-59
2022/08/01 04:43:48;;;;;;;19.88;11.63;;;20.10;99.90;;;;;;5071244;28;20103;-60
2022/08/01 04:46:15;;;;;;;19.02;11.40;;;20.10;99.90;;;;;;5070979;28;20484;-60
2022/08/01 04:48:41;;;;;;;19.30;11.15;;;20.20;99.90;;;;;;5071433;28;20409;-60
2022/08/01 04:51:15;;;;;;;19.95;11.50;;;20.30;99.90;;;;;;5071116;28;20805;-59
2022/08/01 04:53:42;;;;;;;14.10;9.68;;;20.10;99.90;;;;;;5070941;28;20020;-60
2022/08/01 04:56:08;;;;;;;16.27;10.10;;;20.10;99.90;;;;;;5071202;28;20087;-60
2022/08/01 04:58:33;;;;;;;15.75;9.93;;;20.10;99.90;;;;;;5071253;28;20080;-59
2022/08/01 05:00:59;;;;;;;15.55;9.00;;;20.20;99.90;;;;;;5070906;28;20033;-60
2022/08/01 05:03:25;;;;;;;14.75;9.35;;;20.30;99.90;;;;;;5071123;28;20043;-60
2022/08/01 05:05:50;;;;;;;18.10;9.35;;;20.30;99.90;;;;;;5071022;28;20033;-60
2022/08/01 05:08:16;;;;;;;15.65;8.95;;;20.30;99.90;;;;;;5071282;28;20130;-60
2022/08/01 05:10:42;;;;;;;16.85;9.07;;;20.50;99.90;;;;;;5071174;28;20032;-60
2022/08/01 05:13:08;;;;;;;16.05;9.55;;;20.40;99.90;;;;;;5071035;28;20031;-59
2022/08/01 05:15:36;;;;;;;17.85;8.77;;;20.60;99.90;;;;;;5071218;28;20499;-60
2022/08/01 05:18:02;;;;;;;15.43;9.07;;;20.60;99.90;;;;;;5071284;28;20031;-60
2022/08/01 05:20:28;;;;;;;14.27;8.85;;;20.60;99.90;;;;;;5071411;28;20025;-59
2022/08/01 05:22:53;;;;;;;13.15;8.70;;;20.60;99.90;;;;;;5070953;28;20108;-60
2022/08/01 05:25:19;;;;;;;11.35;8.13;;;20.60;99.90;;;;;;5070863;28;20163;-60
2022/08/01 05:27:44;;;;;;;10.90;8.63;;;20.60;99.90;;;;;;5071022;28;20017;-60
2022/08/01 05:30:11;;;;;;;12.82;8.38;;;20.60;99.90;;;;;;5070801;28;20567;-60
2022/08/01 05:32:37;;;;;;;13.57;8.48;;;20.60;99.90;;;;;;5070786;28;20035;-59
2022/08/01 05:35:04;;;;;;;10.88;7.03;;;20.60;99.90;;;;;;5073019;28;20104;-60
2022/08/01 05:37:30;;;;;;;19.60;7.93;;;20.70;99.90;;;;;;5075142;28;20021;-65
2022/08/01 05:39:55;;;;;;;11.27;8.55;;;20.80;99.90;;;;;;5075053;28;20481;-60
2022/08/01 05:42:21;;;;;;;17.30;8.77;;;20.90;99.90;;;;;;5074899;28;20028;-60
2022/08/01 05:44:47;;;;;;;13.18;8.15;;;20.80;99.90;;;;;;5073325;28;20033;-59
2022/08/01 05:47:13;;;;;;;9.45;7.28;;;20.70;99.90;;;;;;5073817;28;20017;-60
2022/08/01 05:49:39;;;;;;;11.57;8.35;;;20.70;99.90;;;;;;5075661;28;20112;-60
2022/08/01 05:52:05;;;;;;;13.20;7.80;;;20.80;99.90;;;;;;5074476;28;20111;-60
2022/08/01 05:54:30;;;;;;;14.25;8.57;;;20.80;99.90;;;;;;5074450;28;20102;-60
2022/08/01 05:56:59;;;;;;;13.48;8.32;;;21.00;99.90;;;;;;5073212;28;20347;-60
2022/08/01 05:59:25;;;;;;;13.88;8.05;;;21.00;99.90;;;;;;5073151;28;20528;-60
2022/08/01 06:01:51;;;;;;;17.48;7.90;;;21.00;99.90;;;;;;5074482;28;20492;-60
2022/08/01 06:04:17;;;;;;;11.13;7.85;;;21.10;99.90;;;;;;5074032;28;20024;-60
2022/08/01 06:06:42;;;;;;;10.45;7.97;;;21.10;99.90;;;;;;5074005;28;20024;-60
2022/08/01 06:09:08;;;;;;;10.82;7.68;;;20.90;99.90;;;;;;5074178;28;20440;-60
2022/08/01 06:11:33;;;;;;;14.43;8.48;;;20.60;99.90;;;;;;5074157;28;20420;-58
2022/08/01 06:13:59;;;;;;;9.60;7.43;;;20.60;99.90;;;;;;5074026;28;20086;-58
2022/08/01 06:16:25;;;;;;;9.20;7.60;;;20.70;99.90;;;;;;5072446;28;20028;-58
2022/08/01 06:18:50;;;;;;;9.63;7.32;;;20.70;99.90;;;;;;5074020;28;20103;-58
2022/08/01 06:21:16;;;;;;;7.72;6.40;;;20.90;99.90;;;;;;5073779;28;20028;-58
2022/08/01 06:23:42;;;;;;;12.45;6.20;;;21.10;99.90;;;;;;5073648;28;20029;-58
2022/08/01 06:26:08;;;;;;;11.35;5.60;;;21.40;99.90;;;;;;5072822;28;20056;-60
2022/08/01 06:28:33;;;;;;;9.38;6.65;;;21.90;99.90;;;;;;5072727;28;20048;-61
2022/08/01 06:30:59;;;;;;;16.05;7.72;;;22.30;99.90;;;;;;5073494;28;20448;-60
2022/08/01 06:33:26;;;;;;;9.35;5.90;;;22.40;99.90;;;;;;5073555;28;20021;-60
2022/08/01 06:35:51;;;;;;;8.18;6.13;;;22.30;99.90;;;;;;5073690;28;20032;-60
2022/08/01 06:38:17;;;;;;;7.30;6.47;;;22.30;99.90;;;;;;5072124;28;20389;-59
2022/08/01 06:40:43;;;;;;;9.18;7.10;;;22.20;99.90;;;;;;5073552;28;20067;-59
2022/08/01 06:43:11;;;;;;;7.45;6.43;;;22.10;99.90;;;;;;5072091;28;20029;-59
2022/08/01 06:45:37;;;;;;;7.13;6.30;;;21.90;99.90;;;;;;5072727;28;20029;-60
2022/08/01 06:48:03;;;;;;;9.57;6.97;;;21.80;99.90;;;;;;5073522;28;20100;-60
2022/08/01 06:50:28;;;;;;;9.23;7.32;;;21.60;99.90;;;;;;5073187;28;20572;-60
2022/08/01 06:52:54;;;;;;;9.38;6.93;;;21.60;99.90;;;;;;5073427;28;20035;-60
2022/08/01 06:55:20;;;;;;;7.13;6.35;;;21.60;99.90;;;;;;5073517;28;20028;-59
2022/08/01 06:57:47;;;;;;;6.72;5.70;;;21.70;99.90;;;;;;5073226;28;20032;-60
2022/08/01 07:00:14;;;;;;;6.43;4.88;;;21.90;99.90;;;;;;5072950;28;20094;-60
2022/08/01 07:02:40;;;;;;;6.10;4.13;;;21.80;99.90;;;;;;5072992;28;20277;-60
2022/08/01 07:05:06;;;;;;;4.80;3.70;;;21.90;99.90;;;;;;5073015;28;20031;-60
2022/08/01 07:07:32;;;;;;;4.15;2.75;;;21.90;99.90;;;;;;5072912;28;20384;-60
2022/08/01 07:09:57;;;;;;;7.05;2.92;;;22.10;99.90;;;;;;5073088;28;20029;-60
2022/08/01 07:12:23;;;;;;;2.95;2.10;;;22.20;99.90;;;;;;5072881;28;20032;-60
2022/08/01 07:14:49;;;;;;;3.70;2.15;;;22.10;99.90;;;;;;5072718;28;20039;-60
2022/08/01 07:17:14;;;;;;;3.50;1.98;;;22.20;99.90;;;;;;5072986;28;20036;-60
2022/08/01 07:19:40;;;;;;;3.95;1.63;;;22.30;99.90;;;;;;5072944;28;20029;-60
2022/08/01 07:22:06;;;;;;;2.97;1.75;;;22.50;99.90;;;;;;5072346;28;20444;-60
2022/08/01 07:24:31;;;;;;;2.50;1.70;;;22.60;99.90;;;;;;5072782;28;20025;-59
2022/08/01 07:26:59;;;;;;;2.28;1.52;;;22.70;99.90;;;;;;5054939;28;20055;-59
2022/08/01 07:29:25;;;;;;;1.70;1.60;;;22.90;99.90;;;;;;5071312;28;20027;-60
2022/08/01 07:31:56;;;;;;;2.92;1.95;;;23.00;99.90;;;;;;5072586;28;20108;-60
2022/08/01 07:34:23;;;;;;;4.43;1.90;;;23.00;99.90;;;;;;5072383;28;20058;-60
2022/08/01 07:36:49;;;;;;;3.97;2.85;;;22.90;99.90;;;;;;5072654;28;20021;-60
2022/08/01 07:39:15;;;;;;;3.78;2.33;;;23.00;99.90;;;;;;5072556;28;20435;-60
2022/08/01 07:41:40;;;;;;;3.75;2.53;;;23.00;99.90;;;;;;5072283;28;20031;-60
2022/08/01 07:44:06;;;;;;;4.10;2.60;;;23.00;99.90;;;;;;5072195;28;20099;-60
2022/08/01 07:46:32;;;;;;;4.18;2.30;;;23.00;99.90;;;;;;5072357;28;20074;-60
2022/08/01 07:48:57;;;;;;;3.45;2.20;;;22.80;99.90;;;;;;5072560;28;20100;-61
2022/08/01 07:51:23;;;;;;;4.15;2.10;;;22.70;99.90;;;;;;5072393;28;20036;-60
2022/08/01 07:53:49;;;;;;;2.45;2.22;;;22.40;99.90;;;;;;5072044;28;20485;-60
2022/08/01 07:56:14;;;;;;;3.88;2.90;;;22.40;99.90;;;;;;5072204;28;20025;-59
2022/08/01 07:58:40;;;;;;;5.10;4.50;;;22.50;99.90;;;;;;5072084;28;20417;-61
2022/08/01 08:01:06;;;;;;;3.55;3.20;;;22.70;99.90;;;;;;5072270;28;20025;-60
2022/08/01 08:03:31;;;;;;;5.82;4.60;;;23.00;99.90;;;;;;5072070;28;20016;-60
2022/08/01 08:05:57;;;;;;;7.60;5.53;;;23.20;99.90;;;;;;5072161;28;20059;-60
2022/08/01 08:08:23;;;;;;;8.05;7.25;;;23.30;99.90;;;;;;5072311;28;20028;-60
2022/08/01 08:10:49;;;;;;;8.07;7.35;;;23.50;99.90;;;;;;5072103;28;20025;-60
2022/08/01 08:13:15;;;;;;;8.20;7.40;;;23.80;99.90;;;;;;5071766;28;20674;-61
2022/08/01 08:15:40;;;;;;;8.50;6.30;;;24.00;99.90;;;;;;5071733;28;20103;-61
2022/08/01 08:18:06;;;;;;;9.02;8.13;;;24.20;99.90;;;;;;5071935;28;20527;-61
2022/08/01 08:20:32;;;;;;;12.15;9.38;;;24.10;99.90;;;;;;5071605;28;20032;-60
2022/08/01 08:22:58;;;;;;;9.02;8.25;;;23.90;99.90;;;;;;5072109;28;20070;-60
2022/08/01 08:25:25;;;;;;;9.25;7.03;;;23.80;99.90;;;;;;5071500;28;20035;-60
2022/08/01 08:27:51;;;;;;;6.38;5.88;;;23.50;99.90;;;;;;5071644;28;20078;-60
2022/08/01 08:30:16;;;;;;;7.72;5.40;;;23.30;99.90;;;;;;5072055;28;20029;-61
2022/08/01 08:32:43;;;;;;;5.72;5.15;;;23.20;99.90;;;;;;5071628;28;20028;-59
2022/08/01 08:35:09;;;;;;;4.40;4.00;;;23.00;99.90;;;;;;5071310;28;20042;-59
2022/08/01 08:37:35;;;;;;;3.53;3.20;;;22.90;99.90;;;;;;5072210;28;20479;-65
2022/08/01 08:40:06;;;;;;;6.05;2.60;;;23.20;99.90;;;;;;5071580;28;20414;-60
2022/08/01 08:42:31;;;;;;;3.47;1.95;;;24.30;99.90;;;;;;5071784;28;20528;-60
2022/08/01 08:44:57;;;;;;;2.30;1.67;;;25.80;99.90;;;;;;5071812;28;20100;-61
2022/08/01 08:47:25;;;;;;;1.70;1.60;;;27.10;99.90;;;;;;5071362;28;20028;-61
2022/08/01 08:49:52;;;;;;;2.33;1.83;;;28.60;99.90;;;;;;5071756;28;20032;-61
2022/08/01 08:52:22;;;;;;;2.42;2.20;;;28.90;99.90;;;;;;5071455;28;20444;-60
2022/08/01 08:54:49;;;;;;;3.90;2.40;;;28.80;99.00;;;;;;5069990;28;20033;-61
2022/08/01 08:57:16;;;;;;;4.78;2.30;;;29.40;97.50;;;;;;5071086;28;20032;-60
2022/08/01 08:59:45;;;;;;;2.97;2.60;;;29.70;96.70;;;;;;5071331;28;20041;-62
2022/08/01 09:02:11;;;;;;;3.15;2.95;;;29.20;97.70;;;;;;5071390;28;20089;-61
2022/08/01 09:04:39;;;;;;;3.28;2.95;;;29.60;96.10;;;;;;5071079;28;20021;-62
2022/08/01 09:07:06;;;;;;;4.20;3.20;;;30.30;95.00;;;;;;5071603;28;20055;-62
2022/08/01 09:09:32;;;;;;;3.00;2.70;;;30.90;93.70;;;;;;5071074;28;20062;-61
2022/08/01 09:11:58;;;;;;;6.05;2.75;;;31.30;92.40;;;;;;5071445;28;20469;-62
2022/08/01 09:14:29;;;;;;;3.72;2.63;;;30.90;92.50;;;;;;5069720;28;20532;-62
2022/08/01 09:17:07;;;;;;;3.78;3.30;;;30.70;92.90;;;;;;5071229;28;20090;-62
2022/08/01 09:19:41;;;;;;;3.45;3.08;;;31.80;91.60;;;;;;5071574;28;20504;-62
2022/08/01 09:22:09;;;;;;;6.18;3.78;;;32.20;90.00;;;;;;5070875;28;20031;-63
2022/08/01 09:24:35;;;;;;;3.83;3.47;;;32.90;88.20;;;;;;5071228;28;20031;-63
2022/08/01 09:27:14;;;;;;;4.40;3.78;;;32.50;86.70;;;;;;5071088;28;20099;-62
2022/08/01 09:29:40;;;;;;;3.95;3.65;;;31.70;88.30;;;;;;5071279;28;20048;-62
2022/08/01 09:32:06;;;;;;;5.65;4.57;;;30.90;89.50;;;;;;5070826;28;20389;-61
2022/08/01 09:34:32;;;;;;;5.45;5.05;;;29.20;92.10;;;;;;5071258;28;20043;-61
2022/08/01 09:37:00;;;;;;;5.90;5.40;;;28.30;94.20;;;;;;5070785;28;20052;-61
2022/08/01 09:39:29;;;;;;;6.22;5.70;;;28.10;95.80;;;;;;5070625;28;20032;-61
2022/08/01 09:41:56;;;;;;;6.10;5.60;;;28.60;94.70;;;;;;5069673;28;20039;-61
2022/08/01 09:44:40;;;;;;;6.43;5.43;;;29.30;94.10;;;;;;5070907;28;20013;-61
2022/08/01 09:47:06;;;;;;;5.07;4.05;;;29.90;93.10;;;;;;5071095;28;20029;-61
2022/08/01 09:49:34;;;;;;;3.00;2.80;;;29.80;93.00;;;;;;5070521;28;20020;-61
2022/08/01 09:52:19;;;;;;;1.83;1.73;;;29.20;93.90;;;;;;5071170;28;20286;-61
2022/08/01 09:55:00;;;;;;;3.45;1.27;;;29.20;94.70;;;;;;5070920;28;20505;-61
2022/08/01 09:57:27;;;;;;;1.00;0.90;;;29.50;93.70;;;;;;5070462;28;20024;-62
2022/08/01 09:59:55;;;;;;;1.33;1.08;;;29.60;93.60;;;;;;5070478;28;20405;-63
2022/08/01 10:02:41;;;;;;;2.08;1.25;;;29.80;92.40;;;;;;5070619;28;20024;-65
2022/08/01 10:05:09;;;;;;;2.70;1.10;;;28.40;94.60;;;;;;5070004;28;20036;-62
2022/08/01 10:07:36;;;;;;;1.40;1.10;;;27.90;96.20;;;;;;5070622;28;20393;-61
2022/08/01 10:10:14;;;;;;;3.78;1.20;;;28.60;95.40;;;;;;5070592;28;20056;-61
2022/08/01 10:12:43;;;;;;;2.10;1.00;;;28.60;95.00;;;;;;5083332;28;20023;-61
2022/08/01 10:15:10;;;;;;;4.07;1.10;;;28.40;95.70;;;;;;5090145;28;20020;-62
2022/08/01 10:17:39;;;;;;;1.63;1.10;;;28.80;94.90;;;;;;5090004;28;20069;-61
2022/08/01 10:20:06;;;;;;;1.15;1.05;;;28.60;95.40;;;;;;5089200;28;20031;-61
2022/08/01 10:22:34;;;;;;;1.20;0.80;;;28.90;94.60;;;;;;5092756;28;20065;-61
2022/08/01 10:25:03;;;;;;;3.08;1.40;;;28.90;94.70;;;;;;5094345;28;20031;-61
2022/08/01 10:27:32;;;;;;;3.05;1.50;;;28.10;95.00;;;;;;5094202;28;20404;-61
2022/08/01 10:30:03;;;;;;;2.10;0.98;;;27.00;97.90;;;;;;5094083;28;20093;-61
2022/08/01 10:32:34;;;;;;;3.50;1.00;;;27.30;97.80;;;;;;5094355;28;20039;-61
2022/08/01 10:35:00;;;;;;;1.33;0.90;;;28.10;96.40;;;;;;5094213;28;20028;-61
2022/08/01 10:37:27;;;;;;;2.28;1.20;;;28.30;95.90;;;;;;5093902;28;20035;-61
2022/08/01 10:39:54;;;;;;;2.28;1.50;;;27.80;96.70;;;;;;5094014;28;20396;-61
2022/08/01 10:42:19;;;;;;;1.38;1.23;;;27.40;97.30;;;;;;5093713;28;20495;-60
2022/08/01 10:44:47;;;;;;;2.22;1.20;;;27.10;97.60;;;;;;5093759;28;20052;-61
2022/08/01 10:47:20;;;;;;;1.65;1.20;;;27.50;97.20;;;;;;5093752;28;20023;-61
2022/08/01 10:50:01;;;;;;;1.80;1.30;;;28.40;95.80;;;;;;5094120;28;20473;-61
2022/08/01 10:52:27;;;;;;;2.95;1.70;;;28.90;94.10;;;;;;5094023;28;20028;-61
2022/08/01 10:55:09;;;;;;;2.38;1.30;;;29.50;93.50;;;;;;5093620;28;20507;-62
2022/08/01 10:57:41;;;;;;;;;;;30.20;91.50;;;;;;5094793;28;20028;-62
2022/08/01 11:00:07;;;;;;;2.28;1.50;;;30.00;91.60;;;;;;5093426;28;20346;-62
2022/08/01 11:02:34;;;;;;;3.92;1.50;;;29.50;92.70;;;;;;5093663;28;20388;-62
2022/08/01 11:05:09;;;;;;;1.77;1.58;;;29.80;92.50;;;;;;5093381;28;20052;-62
2022/08/01 11:07:44;;;;;;;3.15;2.00;;;30.60;91.00;;;;;;5092639;28;20031;-62
2022/08/01 11:10:24;;;;;;;4.40;1.92;;;30.90;89.60;;;;;;5093641;28;20156;-61
2022/08/01 11:12:50;;;;;;;3.10;2.80;;;30.80;90.40;;;;;;5093656;28;20028;-62
2022/08/01 11:15:24;;;;;;;2.80;2.58;;;31.00;90.30;;;;;;5092528;28;20444;-62
2022/08/01 11:17:51;;;;;;;2.75;2.55;;;30.90;90.20;;;;;;5093712;28;20503;-62
2022/08/01 11:20:29;;;;;;;2.78;2.50;;;30.20;91.10;;;;;;5092971;28;20039;-61
2022/08/01 11:23:01;;;;;;;2.85;2.33;;;30.20;90.60;;;;;;5093464;28;20025;-61
2022/08/01 11:25:48;;;;;;;3.55;2.72;;;30.30;90.50;;;;;;5093022;28;20374;-62
2022/08/01 11:28:14;;;;;;;3.55;2.50;;;30.00;90.90;;;;;;5085894;28;20103;-62
2022/08/01 11:30:50;;;;;;;3.40;3.10;;;30.30;90.50;;;;;;5093284;28;20054;-62
2022/08/01 11:33:18;;;;;;;3.60;3.20;;;31.00;88.90;;;;;;5092951;28;20038;-62
2022/08/01 11:36:11;;;;;;;5.65;2.67;;;31.50;86.60;;;;;;5092887;28;20032;-62
2022/08/01 11:38:38;;;;;;;4.00;3.42;;;32.30;84.70;;;;;;5093639;28;20031;-63
2022/08/01 11:41:11;;;;;;;4.93;4.05;;;32.00;84.90;;;;;;5092848;28;20039;-62
2022/08/01 11:44:06;;;;;;;4.70;4.40;;;31.00;88.10;;;;;;5092704;28;20037;-62
2022/08/01 11:46:52;;;;;;;4.25;3.85;;;29.80;90.40;;;;;;5088027;28;20040;-62
2022/08/01 11:49:29;;;;;;;3.70;3.38;;;30.30;90.40;;;;;;5092739;28;20036;-62
2022/08/01 11:52:00;;;;;;;5.40;4.10;;;31.20;89.10;;;;;;5092426;28;20436;-62
2022/08/01 11:54:34;;;;;;;4.28;3.97;;;31.10;88.00;;;;;;5092675;28;20107;-62
2022/08/01 11:57:03;;;;;;;4.88;4.20;;;30.00;90.50;;;;;;5092475;28;20115;-62
2022/08/01 11:59:47;;;;;;;3.50;3.20;;;29.90;90.80;;;;;;5092466;28;20052;-63
2022/08/01 12:02:25;;;;;;;3.80;3.25;;;29.90;91.00;;;;;;5092597;28;20486;-62
2022/08/01 12:04:57;;;;;;;6.15;2.90;;;29.80;90.80;;;;;;5092516;28;20039;-62
2022/08/01 12:07:24;;;;;;;4.13;3.53;;;30.10;90.60;;;;;;5092456;28;20020;-62
2022/08/01 12:09:58;;;;;;;3.17;2.90;;;30.60;89.80;;;;;;5092671;28;20024;-62
2022/08/01 12:12:24;;;;;;;3.70;2.95;;;30.70;88.90;;;;;;5092110;28;20045;-62
2022/08/01 12:14:55;;;;;;;2.75;2.10;;;31.30;88.00;;;;;;5092301;28;20122;-61
2022/08/01 12:17:38;;;;;;;2.40;1.55;;;31.70;85.50;;;;;;5092261;28;20051;-62
2022/08/01 12:20:08;;;;;;;6.25;1.67;;;31.60;83.50;;;;;;5091989;28;20539;-62
2022/08/01 12:22:34;;;;;;;2.67;1.63;;;32.00;83.50;;;;;;5092361;28;20520;-63
2022/08/01 12:25:11;;;;;;;3.53;1.67;;;31.60;83.30;;;;;;5092359;28;20360;-62
2022/08/01 12:27:38;;;;;;;4.53;1.80;;;32.00;82.30;;;;;;5091988;28;20092;-62
2022/08/01 12:30:06;;;;;;;6.90;2.03;;;32.10;81.50;;;;;;5092516;28;20173;-63
2022/08/01 12:32:36;;;;;;;2.55;1.90;;;32.70;80.70;;;;;;5091301;28;20059;-63
2022/08/01 12:35:16;;;;;;;3.45;1.65;;;33.40;79.40;;;;;;5091876;28;20369;-62
2022/08/01 12:37:53;;;;;;;4.40;1.80;;;32.60;79.00;;;;;;5090970;28;20031;-62
2022/08/01 12:40:23;;;;;;;3.38;1.70;;;31.40;80.40;;;;;;5090036;28;20032;-62
2022/08/01 12:42:54;;;;;;;4.72;1.77;;;31.10;80.90;;;;;;5091809;28;20050;-62
2022/08/01 12:45:23;;;;;;;2.55;1.63;;;30.60;82.10;;;;;;5090904;28;20032;-61
2022/08/01 12:47:52;;;;;;;2.25;1.60;;;30.00;83.30;;;;;;5091437;28;20164;-61
2022/08/01 12:50:23;;;;;;;3.53;2.28;;;29.60;82.60;;;;;;5091403;28;20043;-61